sensor_id;sensor_type;location;lat;lon;timestamp;P1;durP1;ratioP1;P2;durP2;ratioP2
26113;SDS011;13966;48.828;9.064;2023-09-07T00:00:04;7.65;;;5.00;;
26113;SDS011;13966;48.828;9.064;2023-09-07T00:02:31;6.38;;;4.15;;
26113;SDS011;13966;48.828;9.064;2023-09-07T00:04:57;8.20;;;4.57;;
26113;SDS011;13966;48.828;9.064;2023-09-07T00:07:23;5.70;;;4.50;;
26113;SDS011;13966;48.828;9.064;2023-09-07T00:09:49;6.93;;;4.35;;
26113;SDS011;13966;48.828;9.064;2023-09-07T00:12:15;7.65;;;4.72;;
26113;SDS011;13966;48.828;9.064;2023-09-07T00:14:41;9.05;;;5.40;;
26113;SDS011;13966;48.828;9.064;2023-09-07T00:17:07;6.95;;;4.53;;
26113;SDS011;13966;48.828;9.064;2023-09-07T00:19:33;6.90;;;4.70;;
26113;SDS011;13966;48.828;9.064;2023-09-07T00:22:01;5.05;;;4.43;;
26113;SDS011;13966;48.828;9.064;2023-09-07T00:24:27;12.45;;;4.82;;
26113;SDS011;13966;48.828;9.064;2023-09-07T00:26:53;12.85;;;4.70;;
26113;SDS011;13966;48.828;9.064;2023-09-07T00:29:19;5.65;;;4.45;;
26113;SDS011;13966;48.828;9.064;2023-09-07T00:31:45;7.32;;;4.65;;
26113;SDS011;13966;48.828;9.064;2023-09-07T00:34:11;6.65;;;4.85;;
26113;SDS011;13966;48.828;9.064;2023-09-07T00:36:37;6.43;;;4.60;;
26113;SDS011;13966;48.828;9.064;2023-09-07T00:39:03;8.75;;;4.60;;
26113;SDS011;13966;48.828;9.064;2023-09-07T00:41:30;4.63;;;4.20;;
26113;SDS011;13966;48.828;9.064;2023-09-07T00:43:56;7.10;;;4.38;;
26113;SDS011;13966;48.828;9.064;2023-09-07T00:46:22;6.13;;;4.90;;
26113;SDS011;13966;48.828;9.064;2023-09-07T00:48:48;5.55;;;4.35;;
26113;SDS011;13966;48.828;9.064;2023-09-07T00:51:15;6.60;;;4.90;;
26113;SDS011;13966;48.828;9.064;2023-09-07T00:53:41;8.32;;;4.93;;
26113;SDS011;13966;48.828;9.064;2023-09-07T00:56:07;6.55;;;4.50;;
26113;SDS011;13966;48.828;9.064;2023-09-07T00:58:33;8.40;;;5.00;;
26113;SDS011;13966;48.828;9.064;2023-09-07T01:00:59;8.10;;;4.60;;
26113;SDS011;13966;48.828;9.064;2023-09-07T01:03:26;6.88;;;4.50;;
26113;SDS011;13966;48.828;9.064;2023-09-07T01:05:53;5.25;;;3.80;;
26113;SDS011;13966;48.828;9.064;2023-09-07T01:08:23;8.20;;;4.85;;
26113;SDS011;13966;48.828;9.064;2023-09-07T01:10:50;5.90;;;4.40;;
26113;SDS011;13966;48.828;9.064;2023-09-07T01:13:16;6.60;;;4.70;;
26113;SDS011;13966;48.828;9.064;2023-09-07T01:15:42;7.65;;;4.40;;
26113;SDS011;13966;48.828;9.064;2023-09-07T01:18:08;6.82;;;4.75;;
26113;SDS011;13966;48.828;9.064;2023-09-07T01:20:35;6.93;;;4.38;;
26113;SDS011;13966;48.828;9.064;2023-09-07T01:23:02;8.30;;;4.80;;
26113;SDS011;13966;48.828;9.064;2023-09-07T01:25:29;5.85;;;4.78;;
26113;SDS011;13966;48.828;9.064;2023-09-07T01:27:57;5.78;;;4.63;;
26113;SDS011;13966;48.828;9.064;2023-09-07T01:30:24;8.52;;;4.60;;
26113;SDS011;13966;48.828;9.064;2023-09-07T01:32:51;9.15;;;4.88;;
26113;SDS011;13966;48.828;9.064;2023-09-07T01:35:17;10.80;;;5.00;;
26113;SDS011;13966;48.828;9.064;2023-09-07T01:37:46;6.47;;;4.40;;
26113;SDS011;13966;48.828;9.064;2023-09-07T01:40:12;10.13;;;4.57;;
26113;SDS011;13966;48.828;9.064;2023-09-07T01:42:38;6.68;;;4.38;;
26113;SDS011;13966;48.828;9.064;2023-09-07T01:45:05;11.25;;;5.13;;
26113;SDS011;13966;48.828;9.064;2023-09-07T01:47:31;9.05;;;4.82;;
26113;SDS011;13966;48.828;9.064;2023-09-07T01:49:57;5.72;;;4.80;;
26113;SDS011;13966;48.828;9.064;2023-09-07T01:52:23;10.73;;;5.25;;
26113;SDS011;13966;48.828;9.064;2023-09-07T01:54:49;6.97;;;4.35;;
26113;SDS011;13966;48.828;9.064;2023-09-07T01:57:15;7.32;;;5.35;;
26113;SDS011;13966;48.828;9.064;2023-09-07T01:59:41;6.57;;;4.82;;
26113;SDS011;13966;48.828;9.064;2023-09-07T02:02:07;9.38;;;5.15;;
26113;SDS011;13966;48.828;9.064;2023-09-07T02:04:33;6.93;;;5.13;;
26113;SDS011;13966;48.828;9.064;2023-09-07T02:06:59;8.50;;;4.93;;
26113;SDS011;13966;48.828;9.064;2023-09-07T02:09:25;6.22;;;4.82;;
26113;SDS011;13966;48.828;9.064;2023-09-07T02:11:51;6.38;;;4.53;;
26113;SDS011;13966;48.828;9.064;2023-09-07T02:14:17;7.60;;;4.85;;
26113;SDS011;13966;48.828;9.064;2023-09-07T02:16:43;7.45;;;4.78;;
26113;SDS011;13966;48.828;9.064;2023-09-07T02:19:09;7.53;;;4.82;;
26113;SDS011;13966;48.828;9.064;2023-09-07T02:21:35;5.85;;;4.50;;
26113;SDS011;13966;48.828;9.064;2023-09-07T02:24:01;6.35;;;4.55;;
26113;SDS011;13966;48.828;9.064;2023-09-07T02:26:28;8.43;;;4.95;;
26113;SDS011;13966;48.828;9.064;2023-09-07T02:28:54;8.18;;;4.40;;
26113;SDS011;13966;48.828;9.064;2023-09-07T02:31:20;6.00;;;4.80;;
26113;SDS011;13966;48.828;9.064;2023-09-07T02:33:46;6.53;;;4.50;;
26113;SDS011;13966;48.828;9.064;2023-09-07T02:36:12;5.55;;;4.30;;
26113;SDS011;13966;48.828;9.064;2023-09-07T02:38:38;7.15;;;5.22;;
26113;SDS011;13966;48.828;9.064;2023-09-07T02:41:05;6.28;;;4.72;;
26113;SDS011;13966;48.828;9.064;2023-09-07T02:43:31;11.60;;;5.00;;
26113;SDS011;13966;48.828;9.064;2023-09-07T02:45:57;6.97;;;4.85;;
26113;SDS011;13966;48.828;9.064;2023-09-07T02:48:24;6.85;;;4.43;;
26113;SDS011;13966;48.828;9.064;2023-09-07T02:50:50;7.40;;;4.78;;
26113;SDS011;13966;48.828;9.064;2023-09-07T02:53:16;6.15;;;4.75;;
26113;SDS011;13966;48.828;9.064;2023-09-07T02:55:42;8.05;;;4.82;;
26113;SDS011;13966;48.828;9.064;2023-09-07T02:58:08;7.85;;;4.88;;
26113;SDS011;13966;48.828;9.064;2023-09-07T03:00:34;8.40;;;4.90;;
26113;SDS011;13966;48.828;9.064;2023-09-07T03:03:00;7.72;;;4.70;;
26113;SDS011;13966;48.828;9.064;2023-09-07T03:05:26;7.43;;;4.60;;
26113;SDS011;13966;48.828;9.064;2023-09-07T03:07:53;8.35;;;4.80;;
26113;SDS011;13966;48.828;9.064;2023-09-07T03:10:19;6.38;;;4.68;;
26113;SDS011;13966;48.828;9.064;2023-09-07T03:12:45;5.78;;;4.80;;
26113;SDS011;13966;48.828;9.064;2023-09-07T03:15:11;10.32;;;5.13;;
26113;SDS011;13966;48.828;9.064;2023-09-07T03:17:37;8.48;;;5.05;;
26113;SDS011;13966;48.828;9.064;2023-09-07T03:20:03;9.02;;;5.47;;
26113;SDS011;13966;48.828;9.064;2023-09-07T03:22:42;6.10;;;4.70;;
26113;SDS011;13966;48.828;9.064;2023-09-07T03:25:09;5.18;;;4.57;;
26113;SDS011;13966;48.828;9.064;2023-09-07T03:27:35;8.15;;;4.65;;
26113;SDS011;13966;48.828;9.064;2023-09-07T03:30:01;6.90;;;5.65;;
26113;SDS011;13966;48.828;9.064;2023-09-07T03:32:28;8.85;;;5.25;;
26113;SDS011;13966;48.828;9.064;2023-09-07T03:34:58;8.57;;;4.85;;
26113;SDS011;13966;48.828;9.064;2023-09-07T03:37:25;6.57;;;5.38;;
26113;SDS011;13966;48.828;9.064;2023-09-07T03:39:51;5.57;;;4.97;;
26113;SDS011;13966;48.828;9.064;2023-09-07T03:42:17;7.22;;;5.75;;
26113;SDS011;13966;48.828;9.064;2023-09-07T03:44:43;6.50;;;4.80;;
26113;SDS011;13966;48.828;9.064;2023-09-07T03:47:09;7.10;;;4.70;;
26113;SDS011;13966;48.828;9.064;2023-09-07T03:49:36;5.97;;;4.97;;
26113;SDS011;13966;48.828;9.064;2023-09-07T03:52:02;6.38;;;5.13;;
26113;SDS011;13966;48.828;9.064;2023-09-07T03:54:30;9.13;;;5.32;;
26113;SDS011;13966;48.828;9.064;2023-09-07T03:56:56;9.52;;;5.63;;
26113;SDS011;13966;48.828;9.064;2023-09-07T03:59:22;9.35;;;5.15;;
26113;SDS011;13966;48.828;9.064;2023-09-07T04:01:48;10.05;;;5.05;;
26113;SDS011;13966;48.828;9.064;2023-09-07T04:04:15;6.55;;;5.07;;
26113;SDS011;13966;48.828;9.064;2023-09-07T04:06:41;8.95;;;5.85;;
26113;SDS011;13966;48.828;9.064;2023-09-07T04:09:07;9.35;;;5.70;;
26113;SDS011;13966;48.828;9.064;2023-09-07T04:11:33;7.85;;;5.07;;
26113;SDS011;13966;48.828;9.064;2023-09-07T04:13:59;8.70;;;5.15;;
26113;SDS011;13966;48.828;9.064;2023-09-07T04:16:25;6.78;;;4.88;;
26113;SDS011;13966;48.828;9.064;2023-09-07T04:18:51;7.75;;;5.28;;
26113;SDS011;13966;48.828;9.064;2023-09-07T04:21:17;6.72;;;5.40;;
26113;SDS011;13966;48.828;9.064;2023-09-07T04:23:43;6.57;;;4.65;;
26113;SDS011;13966;48.828;9.064;2023-09-07T04:26:10;5.65;;;4.88;;
26113;SDS011;13966;48.828;9.064;2023-09-07T04:28:37;6.97;;;5.30;;
26113;SDS011;13966;48.828;9.064;2023-09-07T04:31:03;8.55;;;5.15;;
26113;SDS011;13966;48.828;9.064;2023-09-07T04:33:30;11.48;;;5.32;;
26113;SDS011;13966;48.828;9.064;2023-09-07T04:35:56;10.13;;;5.53;;
26113;SDS011;13966;48.828;9.064;2023-09-07T04:38:22;6.72;;;5.03;;
26113;SDS011;13966;48.828;9.064;2023-09-07T04:40:48;7.32;;;5.07;;
26113;SDS011;13966;48.828;9.064;2023-09-07T04:43:14;8.40;;;5.55;;
26113;SDS011;13966;48.828;9.064;2023-09-07T04:45:46;6.32;;;5.50;;
26113;SDS011;13966;48.828;9.064;2023-09-07T04:48:12;7.05;;;5.07;;
26113;SDS011;13966;48.828;9.064;2023-09-07T04:50:38;7.68;;;4.93;;
26113;SDS011;13966;48.828;9.064;2023-09-07T04:53:04;7.25;;;5.47;;
26113;SDS011;13966;48.828;9.064;2023-09-07T04:55:30;6.43;;;5.05;;
26113;SDS011;13966;48.828;9.064;2023-09-07T04:57:56;10.43;;;5.13;;
26113;SDS011;13966;48.828;9.064;2023-09-07T05:00:22;6.53;;;5.00;;
26113;SDS011;13966;48.828;9.064;2023-09-07T05:02:48;9.23;;;6.10;;
26113;SDS011;13966;48.828;9.064;2023-09-07T05:05:14;6.82;;;5.00;;
26113;SDS011;13966;48.828;9.064;2023-09-07T05:07:40;8.38;;;5.80;;
26113;SDS011;13966;48.828;9.064;2023-09-07T05:10:06;8.40;;;5.25;;
26113;SDS011;13966;48.828;9.064;2023-09-07T05:12:33;7.80;;;5.35;;
26113;SDS011;13966;48.828;9.064;2023-09-07T05:14:59;13.07;;;5.93;;
26113;SDS011;13966;48.828;9.064;2023-09-07T05:17:25;9.25;;;5.50;;
26113;SDS011;13966;48.828;9.064;2023-09-07T05:19:51;8.63;;;5.43;;
26113;SDS011;13966;48.828;9.064;2023-09-07T05:22:17;6.43;;;5.28;;
26113;SDS011;13966;48.828;9.064;2023-09-07T05:24:44;9.82;;;5.68;;
26113;SDS011;13966;48.828;9.064;2023-09-07T05:27:12;7.10;;;4.93;;
26113;SDS011;13966;48.828;9.064;2023-09-07T05:29:38;9.23;;;5.03;;
26113;SDS011;13966;48.828;9.064;2023-09-07T05:32:04;9.18;;;5.03;;
26113;SDS011;13966;48.828;9.064;2023-09-07T05:34:31;10.52;;;5.78;;
26113;SDS011;13966;48.828;9.064;2023-09-07T05:36:57;8.13;;;5.63;;
26113;SDS011;13966;48.828;9.064;2023-09-07T05:39:22;9.25;;;5.70;;
26113;SDS011;13966;48.828;9.064;2023-09-07T05:41:49;9.05;;;5.57;;
26113;SDS011;13966;48.828;9.064;2023-09-07T05:44:15;6.95;;;5.10;;
26113;SDS011;13966;48.828;9.064;2023-09-07T05:46:41;8.52;;;5.22;;
26113;SDS011;13966;48.828;9.064;2023-09-07T05:49:07;11.32;;;6.47;;
26113;SDS011;13966;48.828;9.064;2023-09-07T05:51:33;9.48;;;5.50;;
26113;SDS011;13966;48.828;9.064;2023-09-07T05:53:59;7.63;;;5.50;;
26113;SDS011;13966;48.828;9.064;2023-09-07T05:56:25;11.85;;;6.30;;
26113;SDS011;13966;48.828;9.064;2023-09-07T05:58:51;10.23;;;5.75;;
26113;SDS011;13966;48.828;9.064;2023-09-07T06:01:17;9.30;;;5.57;;
26113;SDS011;13966;48.828;9.064;2023-09-07T06:03:43;8.27;;;4.90;;
26113;SDS011;13966;48.828;9.064;2023-09-07T06:06:08;7.45;;;4.85;;
26113;SDS011;13966;48.828;9.064;2023-09-07T06:08:34;7.60;;;5.10;;
26113;SDS011;13966;48.828;9.064;2023-09-07T06:11:01;10.23;;;5.97;;
26113;SDS011;13966;48.828;9.064;2023-09-07T06:13:27;13.88;;;5.80;;
26113;SDS011;13966;48.828;9.064;2023-09-07T06:15:53;11.85;;;5.80;;
26113;SDS011;13966;48.828;9.064;2023-09-07T06:18:19;9.25;;;5.70;;
26113;SDS011;13966;48.828;9.064;2023-09-07T06:20:45;12.68;;;6.35;;
26113;SDS011;13966;48.828;9.064;2023-09-07T06:23:12;8.88;;;6.57;;
26113;SDS011;13966;48.828;9.064;2023-09-07T06:25:38;8.30;;;5.72;;
26113;SDS011;13966;48.828;9.064;2023-09-07T06:28:04;8.27;;;5.28;;
26113;SDS011;13966;48.828;9.064;2023-09-07T06:30:30;11.25;;;6.05;;
26113;SDS011;13966;48.828;9.064;2023-09-07T06:32:56;11.85;;;6.38;;
26113;SDS011;13966;48.828;9.064;2023-09-07T06:35:22;13.73;;;6.28;;
26113;SDS011;13966;48.828;9.064;2023-09-07T06:37:48;11.85;;;6.03;;
26113;SDS011;13966;48.828;9.064;2023-09-07T06:40:14;17.25;;;7.13;;
26113;SDS011;13966;48.828;9.064;2023-09-07T06:42:42;13.15;;;6.60;;
26113;SDS011;13966;48.828;9.064;2023-09-07T06:45:08;9.52;;;6.07;;
26113;SDS011;13966;48.828;9.064;2023-09-07T06:47:35;13.27;;;5.75;;
26113;SDS011;13966;48.828;9.064;2023-09-07T06:50:01;12.60;;;6.25;;
26113;SDS011;13966;48.828;9.064;2023-09-07T06:52:27;11.40;;;6.57;;
26113;SDS011;13966;48.828;9.064;2023-09-07T06:54:53;10.65;;;5.78;;
26113;SDS011;13966;48.828;9.064;2023-09-07T06:57:19;13.60;;;6.25;;
26113;SDS011;13966;48.828;9.064;2023-09-07T06:59:45;12.93;;;6.45;;
26113;SDS011;13966;48.828;9.064;2023-09-07T07:02:11;11.77;;;6.68;;
26113;SDS011;13966;48.828;9.064;2023-09-07T07:04:37;15.55;;;6.38;;
26113;SDS011;13966;48.828;9.064;2023-09-07T07:07:03;8.68;;;6.10;;
26113;SDS011;13966;48.828;9.064;2023-09-07T07:09:31;8.30;;;5.65;;
26113;SDS011;13966;48.828;9.064;2023-09-07T07:11:59;10.98;;;5.90;;
26113;SDS011;13966;48.828;9.064;2023-09-07T07:14:28;10.63;;;6.30;;
26113;SDS011;13966;48.828;9.064;2023-09-07T07:16:54;11.48;;;6.13;;
26113;SDS011;13966;48.828;9.064;2023-09-07T07:19:20;9.95;;;5.60;;
26113;SDS011;13966;48.828;9.064;2023-09-07T07:21:46;10.32;;;5.97;;
26113;SDS011;13966;48.828;9.064;2023-09-07T07:24:12;15.77;;;5.90;;
26113;SDS011;13966;48.828;9.064;2023-09-07T07:26:39;10.73;;;5.85;;
26113;SDS011;13966;48.828;9.064;2023-09-07T07:29:05;9.88;;;5.07;;
26113;SDS011;13966;48.828;9.064;2023-09-07T07:31:31;9.18;;;4.95;;
26113;SDS011;13966;48.828;9.064;2023-09-07T07:33:57;8.65;;;5.50;;
26113;SDS011;13966;48.828;9.064;2023-09-07T07:36:23;8.90;;;5.47;;
26113;SDS011;13966;48.828;9.064;2023-09-07T07:38:49;15.52;;;5.53;;
26113;SDS011;13966;48.828;9.064;2023-09-07T07:41:15;9.20;;;4.88;;
26113;SDS011;13966;48.828;9.064;2023-09-07T07:43:41;7.28;;;5.40;;
26113;SDS011;13966;48.828;9.064;2023-09-07T07:46:08;15.68;;;5.60;;
26113;SDS011;13966;48.828;9.064;2023-09-07T07:48:34;7.40;;;5.38;;
26113;SDS011;13966;48.828;9.064;2023-09-07T07:51:03;6.57;;;4.85;;
26113;SDS011;13966;48.828;9.064;2023-09-07T07:53:30;8.30;;;4.55;;
26113;SDS011;13966;48.828;9.064;2023-09-07T07:55:56;5.75;;;4.75;;
26113;SDS011;13966;48.828;9.064;2023-09-07T07:58:22;8.35;;;4.93;;
26113;SDS011;13966;48.828;9.064;2023-09-07T08:00:48;10.48;;;5.10;;
26113;SDS011;13966;48.828;9.064;2023-09-07T08:03:15;7.10;;;5.05;;
26113;SDS011;13966;48.828;9.064;2023-09-07T08:05:42;10.18;;;5.47;;
26113;SDS011;13966;48.828;9.064;2023-09-07T08:08:08;9.93;;;5.20;;
26113;SDS011;13966;48.828;9.064;2023-09-07T08:10:37;8.65;;;5.35;;
26113;SDS011;13966;48.828;9.064;2023-09-07T08:13:03;9.80;;;4.95;;
26113;SDS011;13966;48.828;9.064;2023-09-07T08:15:29;7.00;;;4.70;;
26113;SDS011;13966;48.828;9.064;2023-09-07T08:17:56;7.00;;;4.20;;
26113;SDS011;13966;48.828;9.064;2023-09-07T08:20:24;7.85;;;4.53;;
26113;SDS011;13966;48.828;9.064;2023-09-07T08:22:50;8.00;;;5.03;;
26113;SDS011;13966;48.828;9.064;2023-09-07T08:25:17;5.70;;;4.35;;
26113;SDS011;13966;48.828;9.064;2023-09-07T08:27:43;9.63;;;4.82;;
26113;SDS011;13966;48.828;9.064;2023-09-07T08:30:11;8.57;;;4.68;;
26113;SDS011;13966;48.828;9.064;2023-09-07T08:32:38;6.50;;;4.35;;
26113;SDS011;13966;48.828;9.064;2023-09-07T08:35:04;5.97;;;4.18;;
26113;SDS011;13966;48.828;9.064;2023-09-07T08:37:32;5.53;;;4.25;;
26113;SDS011;13966;48.828;9.064;2023-09-07T08:39:59;7.78;;;4.57;;
26113;SDS011;13966;48.828;9.064;2023-09-07T08:42:25;8.82;;;4.63;;
26113;SDS011;13966;48.828;9.064;2023-09-07T08:44:51;7.28;;;4.40;;
26113;SDS011;13966;48.828;9.064;2023-09-07T08:47:19;6.53;;;4.30;;
26113;SDS011;13966;48.828;9.064;2023-09-07T08:49:46;10.30;;;4.68;;
26113;SDS011;13966;48.828;9.064;2023-09-07T08:52:12;6.13;;;4.40;;
26113;SDS011;13966;48.828;9.064;2023-09-07T08:54:39;8.02;;;4.38;;
26113;SDS011;13966;48.828;9.064;2023-09-07T08:57:07;7.57;;;4.45;;
26113;SDS011;13966;48.828;9.064;2023-09-07T08:59:33;6.53;;;4.47;;
26113;SDS011;13966;48.828;9.064;2023-09-07T09:02:01;5.80;;;4.35;;
26113;SDS011;13966;48.828;9.064;2023-09-07T09:04:29;5.88;;;4.57;;
26113;SDS011;13966;48.828;9.064;2023-09-07T09:06:55;10.60;;;5.18;;
26113;SDS011;13966;48.828;9.064;2023-09-07T09:09:23;5.18;;;4.53;;
26113;SDS011;13966;48.828;9.064;2023-09-07T09:11:50;5.55;;;4.55;;
26113;SDS011;13966;48.828;9.064;2023-09-07T09:14:19;7.00;;;4.78;;
26113;SDS011;13966;48.828;9.064;2023-09-07T09:16:50;10.68;;;4.22;;
26113;SDS011;13966;48.828;9.064;2023-09-07T09:19:16;7.50;;;4.45;;
26113;SDS011;13966;48.828;9.064;2023-09-07T09:21:45;7.85;;;4.10;;
26113;SDS011;13966;48.828;9.064;2023-09-07T09:24:11;6.70;;;4.00;;
26113;SDS011;13966;48.828;9.064;2023-09-07T09:26:37;4.75;;;3.78;;
26113;SDS011;13966;48.828;9.064;2023-09-07T09:29:03;7.40;;;4.70;;
26113;SDS011;13966;48.828;9.064;2023-09-07T09:31:30;6.35;;;4.20;;
26113;SDS011;13966;48.828;9.064;2023-09-07T09:33:56;6.90;;;4.10;;
26113;SDS011;13966;48.828;9.064;2023-09-07T09:36:22;10.20;;;4.80;;
26113;SDS011;13966;48.828;9.064;2023-09-07T09:38:49;4.85;;;3.95;;
26113;SDS011;13966;48.828;9.064;2023-09-07T09:41:15;5.93;;;4.25;;
26113;SDS011;13966;48.828;9.064;2023-09-07T09:43:42;4.40;;;3.95;;
26113;SDS011;13966;48.828;9.064;2023-09-07T09:46:09;5.63;;;3.92;;
26113;SDS011;13966;48.828;9.064;2023-09-07T09:48:35;7.60;;;4.50;;
26113;SDS011;13966;48.828;9.064;2023-09-07T09:51:02;5.95;;;4.40;;
26113;SDS011;13966;48.828;9.064;2023-09-07T09:53:29;8.18;;;4.32;;
26113;SDS011;13966;48.828;9.064;2023-09-07T09:55:55;6.20;;;4.28;;
26113;SDS011;13966;48.828;9.064;2023-09-07T09:58:21;5.93;;;4.32;;
26113;SDS011;13966;48.828;9.064;2023-09-07T10:00:48;5.63;;;4.40;;
26113;SDS011;13966;48.828;9.064;2023-09-07T10:05:44;8.27;;;4.50;;
26113;SDS011;13966;48.828;9.064;2023-09-07T10:08:12;5.93;;;3.90;;
26113;SDS011;13966;48.828;9.064;2023-09-07T10:10:38;6.00;;;4.18;;
26113;SDS011;13966;48.828;9.064;2023-09-07T10:13:05;7.97;;;4.63;;
26113;SDS011;13966;48.828;9.064;2023-09-07T10:15:31;6.13;;;4.00;;
26113;SDS011;13966;48.828;9.064;2023-09-07T10:18:08;7.63;;;4.85;;
26113;SDS011;13966;48.828;9.064;2023-09-07T10:23:17;9.02;;;5.00;;
26113;SDS011;13966;48.828;9.064;2023-09-07T10:25:46;7.38;;;4.53;;
26113;SDS011;13966;48.828;9.064;2023-09-07T10:28:19;8.10;;;4.55;;
26113;SDS011;13966;48.828;9.064;2023-09-07T10:30:45;6.53;;;4.57;;
26113;SDS011;13966;48.828;9.064;2023-09-07T10:33:21;7.05;;;4.35;;
26113;SDS011;13966;48.828;9.064;2023-09-07T10:35:47;6.35;;;4.20;;
26113;SDS011;13966;48.828;9.064;2023-09-07T10:38:13;5.88;;;4.18;;
26113;SDS011;13966;48.828;9.064;2023-09-07T10:40:40;6.18;;;4.05;;
26113;SDS011;13966;48.828;9.064;2023-09-07T10:43:07;6.03;;;3.95;;
26113;SDS011;13966;48.828;9.064;2023-09-07T10:45:33;6.75;;;4.63;;
26113;SDS011;13966;48.828;9.064;2023-09-07T10:47:59;6.20;;;3.83;;
26113;SDS011;13966;48.828;9.064;2023-09-07T10:50:25;5.43;;;3.90;;
26113;SDS011;13966;48.828;9.064;2023-09-07T10:52:51;6.63;;;4.25;;
26113;SDS011;13966;48.828;9.064;2023-09-07T10:55:18;4.68;;;3.78;;
26113;SDS011;13966;48.828;9.064;2023-09-07T10:57:44;6.45;;;4.05;;
26113;SDS011;13966;48.828;9.064;2023-09-07T11:00:11;6.35;;;4.35;;
26113;SDS011;13966;48.828;9.064;2023-09-07T11:02:38;4.22;;;3.88;;
26113;SDS011;13966;48.828;9.064;2023-09-07T11:05:05;5.97;;;3.90;;
26113;SDS011;13966;48.828;9.064;2023-09-07T11:07:31;6.32;;;3.92;;
26113;SDS011;13966;48.828;9.064;2023-09-07T11:09:57;5.75;;;3.70;;
26113;SDS011;13966;48.828;9.064;2023-09-07T11:12:23;6.40;;;3.60;;
26113;SDS011;13966;48.828;9.064;2023-09-07T11:14:49;7.25;;;3.90;;
26113;SDS011;13966;48.828;9.064;2023-09-07T11:17:16;6.80;;;3.70;;
26113;SDS011;13966;48.828;9.064;2023-09-07T11:19:42;5.60;;;3.65;;
26113;SDS011;13966;48.828;9.064;2023-09-07T11:22:11;6.85;;;4.00;;
26113;SDS011;13966;48.828;9.064;2023-09-07T11:24:40;7.63;;;4.13;;
26113;SDS011;13966;48.828;9.064;2023-09-07T11:27:09;5.53;;;3.53;;
26113;SDS011;13966;48.828;9.064;2023-09-07T11:29:35;5.35;;;3.63;;
26113;SDS011;13966;48.828;9.064;2023-09-07T11:32:10;7.93;;;3.70;;
26113;SDS011;13966;48.828;9.064;2023-09-07T11:34:47;7.60;;;3.85;;
26113;SDS011;13966;48.828;9.064;2023-09-07T11:37:14;4.00;;;3.38;;
26113;SDS011;13966;48.828;9.064;2023-09-07T11:39:40;6.10;;;3.15;;
26113;SDS011;13966;48.828;9.064;2023-09-07T11:42:06;5.43;;;3.20;;
26113;SDS011;13966;48.828;9.064;2023-09-07T11:44:32;6.97;;;2.65;;
26113;SDS011;13966;48.828;9.064;2023-09-07T11:46:58;6.78;;;3.08;;
26113;SDS011;13966;48.828;9.064;2023-09-07T11:49:24;3.88;;;2.78;;
26113;SDS011;13966;48.828;9.064;2023-09-07T11:51:50;4.07;;;2.92;;
26113;SDS011;13966;48.828;9.064;2023-09-07T11:54:16;6.05;;;2.47;;
26113;SDS011;13966;48.828;9.064;2023-09-07T11:56:42;2.55;;;2.33;;
26113;SDS011;13966;48.828;9.064;2023-09-07T11:59:09;2.53;;;2.33;;
26113;SDS011;13966;48.828;9.064;2023-09-07T12:01:35;6.97;;;2.30;;
26113;SDS011;13966;48.828;9.064;2023-09-07T12:04:01;5.40;;;2.80;;
26113;SDS011;13966;48.828;9.064;2023-09-07T12:06:29;4.25;;;2.47;;
26113;SDS011;13966;48.828;9.064;2023-09-07T12:09:13;3.92;;;2.22;;
26113;SDS011;13966;48.828;9.064;2023-09-07T12:11:39;2.97;;;2.05;;
26113;SDS011;13966;48.828;9.064;2023-09-07T12:14:07;2.33;;;2.13;;
26113;SDS011;13966;48.828;9.064;2023-09-07T12:16:33;5.10;;;1.75;;
26113;SDS011;13966;48.828;9.064;2023-09-07T12:18:59;2.00;;;1.63;;
26113;SDS011;13966;48.828;9.064;2023-09-07T12:21:25;2.47;;;2.00;;
26113;SDS011;13966;48.828;9.064;2023-09-07T12:23:51;2.78;;;2.00;;
26113;SDS011;13966;48.828;9.064;2023-09-07T12:26:17;2.92;;;1.67;;
26113;SDS011;13966;48.828;9.064;2023-09-07T12:28:45;1.80;;;1.58;;
26113;SDS011;13966;48.828;9.064;2023-09-07T12:31:11;2.13;;;1.65;;
26113;SDS011;13966;48.828;9.064;2023-09-07T12:33:37;4.00;;;1.90;;
26113;SDS011;13966;48.828;9.064;2023-09-07T12:36:03;3.28;;;1.52;;
26113;SDS011;13966;48.828;9.064;2023-09-07T12:38:34;2.78;;;1.55;;
26113;SDS011;13966;48.828;9.064;2023-09-07T12:41:00;5.50;;;1.80;;
26113;SDS011;13966;48.828;9.064;2023-09-07T12:43:26;2.03;;;1.63;;
26113;SDS011;13966;48.828;9.064;2023-09-07T12:45:51;2.80;;;1.80;;
26113;SDS011;13966;48.828;9.064;2023-09-07T12:48:18;2.25;;;1.42;;
26113;SDS011;13966;48.828;9.064;2023-09-07T12:50:44;2.47;;;1.25;;
26113;SDS011;13966;48.828;9.064;2023-09-07T12:53:09;3.88;;;1.65;;
26113;SDS011;13966;48.828;9.064;2023-09-07T12:55:35;3.50;;;1.20;;
26113;SDS011;13966;48.828;9.064;2023-09-07T12:58:01;1.75;;;1.27;;
26113;SDS011;13966;48.828;9.064;2023-09-07T13:00:27;3.20;;;1.48;;
26113;SDS011;13966;48.828;9.064;2023-09-07T13:02:54;2.95;;;1.27;;
26113;SDS011;13966;48.828;9.064;2023-09-07T13:05:20;2.10;;;1.20;;
26113;SDS011;13966;48.828;9.064;2023-09-07T13:07:46;2.28;;;1.40;;
26113;SDS011;13966;48.828;9.064;2023-09-07T13:10:13;2.17;;;1.20;;
26113;SDS011;13966;48.828;9.064;2023-09-07T13:12:39;2.97;;;1.30;;
26113;SDS011;13966;48.828;9.064;2023-09-07T13:15:05;3.38;;;1.50;;
26113;SDS011;13966;48.828;9.064;2023-09-07T13:17:32;4.05;;;1.35;;
26113;SDS011;13966;48.828;9.064;2023-09-07T13:19:57;1.85;;;1.10;;
26113;SDS011;13966;48.828;9.064;2023-09-07T13:22:23;3.45;;;1.60;;
26113;SDS011;13966;48.828;9.064;2023-09-07T13:24:49;2.13;;;1.40;;
26113;SDS011;13966;48.828;9.064;2023-09-07T13:27:15;4.38;;;1.65;;
26113;SDS011;13966;48.828;9.064;2023-09-07T13:29:41;3.95;;;1.38;;
26113;SDS011;13966;48.828;9.064;2023-09-07T13:32:07;2.17;;;1.40;;
26113;SDS011;13966;48.828;9.064;2023-09-07T13:34:33;3.28;;;1.63;;
26113;SDS011;13966;48.828;9.064;2023-09-07T13:36:59;4.65;;;1.30;;
26113;SDS011;13966;48.828;9.064;2023-09-07T13:39:25;3.75;;;1.48;;
26113;SDS011;13966;48.828;9.064;2023-09-07T13:41:51;4.85;;;1.55;;
26113;SDS011;13966;48.828;9.064;2023-09-07T13:44:17;3.63;;;1.45;;
26113;SDS011;13966;48.828;9.064;2023-09-07T13:46:44;1.90;;;1.30;;
26113;SDS011;13966;48.828;9.064;2023-09-07T13:49:10;3.00;;;1.50;;
26113;SDS011;13966;48.828;9.064;2023-09-07T13:51:36;2.78;;;1.50;;
26113;SDS011;13966;48.828;9.064;2023-09-07T13:54:05;3.72;;;1.50;;
26113;SDS011;13966;48.828;9.064;2023-09-07T13:56:32;2.45;;;1.50;;
26113;SDS011;13966;48.828;9.064;2023-09-07T13:58:58;2.58;;;1.83;;
26113;SDS011;13966;48.828;9.064;2023-09-07T14:01:24;2.70;;;1.38;;
26113;SDS011;13966;48.828;9.064;2023-09-07T14:03:50;3.28;;;1.38;;
26113;SDS011;13966;48.828;9.064;2023-09-07T14:06:17;6.38;;;1.52;;
26113;SDS011;13966;48.828;9.064;2023-09-07T14:08:45;3.95;;;1.70;;
26113;SDS011;13966;48.828;9.064;2023-09-07T14:11:13;5.97;;;1.60;;
26113;SDS011;13966;48.828;9.064;2023-09-07T14:13:39;3.85;;;1.58;;
26113;SDS011;13966;48.828;9.064;2023-09-07T14:16:05;2.42;;;1.48;;
26113;SDS011;13966;48.828;9.064;2023-09-07T14:18:32;3.28;;;1.60;;
26113;SDS011;13966;48.828;9.064;2023-09-07T14:20:58;3.78;;;1.75;;
26113;SDS011;13966;48.828;9.064;2023-09-07T14:23:25;1.90;;;1.60;;
26113;SDS011;13966;48.828;9.064;2023-09-07T14:25:52;3.05;;;1.38;;
26113;SDS011;13966;48.828;9.064;2023-09-07T14:28:18;1.98;;;1.35;;
26113;SDS011;13966;48.828;9.064;2023-09-07T14:30:44;2.03;;;1.55;;
26113;SDS011;13966;48.828;9.064;2023-09-07T14:33:10;3.33;;;1.60;;
26113;SDS011;13966;48.828;9.064;2023-09-07T14:35:36;2.95;;;1.55;;
26113;SDS011;13966;48.828;9.064;2023-09-07T14:38:02;2.08;;;1.80;;
26113;SDS011;13966;48.828;9.064;2023-09-07T14:40:28;5.03;;;1.63;;
26113;SDS011;13966;48.828;9.064;2023-09-07T14:42:54;1.85;;;1.48;;
26113;SDS011;13966;48.828;9.064;2023-09-07T14:45:22;6.37;;;1.80;;